• Join FlightAware (Why Join?)
  • Login
  • US Flag 
03:24AM EDT


 

Airport Tracker/Info


-or-


 

Live Flight TrackerFlight Track Log ✈ UAL3732 ✈ 08-Apr-2013 ✈ KELP - KORD

Flight Track Log - Related Links

Times and Time Zones

All times are in EDT time to prevent confusion due to time zone crossing. See the UAL3732 flight status page for this flight to view local times or setup timezone preferences in your user account.

Time Position Orientation Groundspeed Altitude Reporting Facility
EDT Latitude Longitude Course Direction KTS MPH feet Rate Location/Type
11:00AM 31.7981 -106.4039 150° Southeast 165 190 4,900  Level Albuquerque Center
11:01AM 31.7519 -106.3728 150° Southeast 236 272 7,300 2,040 Climbing Albuquerque Center
11:02AM 31.7256 -106.3222 122° Southeast 234 269 9,000 1,440 Climbing Albuquerque Center
11:03AM 31.7331 -106.2269 85° East 305 351 10,100 1,740 Climbing Albuquerque Center
11:04AM 31.7897 -106.1439 51° Northeast 326 375 12,700 2,280 Climbing Albuquerque Center
11:05AM 31.8617 -106.0433 50° Northeast 336 387 14,900 1,980 Climbing Albuquerque Center
11:06AM 31.9281 -105.9461 51° Northeast 357 411 16,900 1,920 Climbing Albuquerque Center
11:07AM 31.9914 -105.8592 49° Northeast 369 425 18,900 1,500 Climbing Albuquerque Center
11:08AM 32.0658 -105.7669 46° Northeast 384 442 20,000 960 Climbing Albuquerque Center
11:09AM 32.1567 -105.6781 40° Northeast 422 486 21,000 960 Climbing Albuquerque Center
11:10AM 32.2506 -105.5858 40° Northeast 437 503 22,000 960 Climbing Albuquerque Center
11:11AM 32.3686 -105.4672 40° Northeast 455 524 23,000 900 Climbing Albuquerque Center
11:12AM 32.4711 -105.3669 40° Northeast 470 541 23,900 900 Climbing Albuquerque Center
11:13AM 32.5775 -105.2656 39° Northeast 483 556 24,900 960 Climbing Albuquerque Center
11:14AM 32.6928 -105.1536 39° Northeast 486 559 26,000 1,080 Climbing Albuquerque Center
11:15AM 32.8011 -105.0581 37° Northeast 487 560 27,200 1,200 Climbing Albuquerque Center
11:16AM 32.9197 -104.9617 34° Northeast 479 551 28,500 1,080 Climbing Albuquerque Center
11:17AM 33.0308 -104.8728 34° Northeast 481 554 29,500 960 Climbing Albuquerque Center
11:18AM 33.1506 -104.7750 34° Northeast 483 556 30,500 960 Climbing Albuquerque Center
11:19AM 33.2622 -104.6833 34° Northeast 485 558 31,500 1,020 Climbing Albuquerque Center
11:20AM 33.3628 -104.5822 40° Northeast 485 558 32,700 840 Climbing Albuquerque Center
11:21AM 33.4472 -104.4572 51° Northeast 484 557 33,300 840 Climbing Albuquerque Center
11:22AM 33.5458 -104.3128 51° Northeast 491 565 34,500 780 Climbing Albuquerque Center
11:23AM 33.6303 -104.1864 51° Northeast 486 559 35,000 240 Climbing Albuquerque Center
11:24AM 33.7236 -104.0469 51° Northeast 495 570 35,000  Level Albuquerque Center
11:25AM 33.8108 -103.9153 51° Northeast 504 580 35,000  Level Albuquerque Center
11:26AM 33.8997 -103.7806 51° Northeast 512 589 35,000  Level Albuquerque Center
11:27AM 33.9906 -103.6433 51° Northeast 522 601 35,000  Level Albuquerque Center
11:28AM 34.0822 -103.5036 52° Northeast 526 605 35,000  Level Albuquerque Center
11:29AM 34.1742 -103.3633 52° Northeast 530 610 35,000  Level Albuquerque Center
11:31AM 34.2725 -103.2133 52° Northeast 525 604 35,000  Level Albuquerque Center
11:32AM 34.3608 -103.0744 52° Northeast 519 597 35,000  Level Albuquerque Center
11:33AM 34.4558 -102.9297 51° Northeast 517 595 35,000  Level Albuquerque Center
11:34AM 34.5528 -102.7772 52° Northeast 513 590 35,000  Level Albuquerque Center
11:35AM 34.6297 -102.6575 52° Northeast 512 589 35,000  Level Albuquerque Center
11:36AM 34.7161 -102.5214 52° Northeast 511 588 35,000  Level Albuquerque Center
11:37AM 34.8200 -102.3586 52° Northeast 509 586 35,000  Level Albuquerque Center
11:38AM 34.9072 -102.2208 52° Northeast 512 589 35,000  Level Albuquerque Center
11:39AM 34.9925 -102.0839 53° Northeast 510 587 35,000  Level Albuquerque Center
11:40AM 35.0797 -101.9508 51° Northeast 516 594 35,000  Level Albuquerque Center
11:41AM 35.1819 -101.7889 52° Northeast 515 593 35,000  Level Albuquerque Center
11:42AM 35.2719 -101.6456 52° Northeast 512 589 35,000  Level Albuquerque Center
11:43AM 35.3578 -101.5056 53° Northeast 512 589 35,000  Level Albuquerque Center
11:44AM 35.4447 -101.3667 52° Northeast 513 590 35,000  Level Albuquerque Center
11:45AM 35.5389 -101.2131 53° Northeast 512 589 35,000  Level Albuquerque Center
11:46AM 35.6244 -101.0739 53° Northeast 512 589 35,000  Level Albuquerque Center
11:47AM 35.7100 -100.9333 53° Northeast 513 590 35,000  Level Albuquerque Center
11:48AM 35.7892 -100.8047 53° Northeast 514 592 35,000  Level Albuquerque Center
11:49AM 35.8925 -100.6344 53° Northeast 514 592 35,000  Level Albuquerque Center
11:50AM 35.9783 -100.4903 54° Northeast 516 594 35,000  Level Albuquerque Center
11:51AM 36.0653 -100.3483 53° Northeast 516 594 35,000  Level Albuquerque Center
11:52AM 36.1506 -100.2053 54° Northeast 515 593 35,000  Level Albuquerque Center
11:53AM 36.1847 -100.1472 54° Northeast 516 594 35,000  Level Kansas City Center
11:54AM 36.2883 -99.9739 53° Northeast 518 596 35,000  Level Kansas City Center
11:55AM 36.3753 -99.8297 53° Northeast 518 596 35,000  Level Kansas City Center
11:56AM 36.4639 -99.6883 52° Northeast 515 593 35,000  Level Kansas City Center
11:57AM 36.5525 -99.5461 52° Northeast 515 593 35,000  Level Kansas City Center
11:58AM 36.6414 -99.4031 52° Northeast 517 595 35,000  Level Kansas City Center
11:59AM 36.7306 -99.2583 52° Northeast 520 598 35,000  Level Kansas City Center
12:00PM 36.8192 -99.1106 53° Northeast 525 604 35,000  Level Kansas City Center
12:01PM 36.9092 -98.9639 52° Northeast 527 606 35,000  Level Kansas City Center
12:02PM 36.9986 -98.8144 53° Northeast 530 610 35,000  Level Kansas City Center
12:03PM 37.0933 -98.6628 52° Northeast 532 612 35,000  Level Kansas City Center
12:04PM 37.1831 -98.5136 53° Northeast 535 616 35,000  Level Kansas City Center
12:05PM 37.2922 -98.3347 52° Northeast 538 619 35,000  Level Kansas City Center
12:06PM 37.3828 -98.1850 53° Northeast 538 619 35,000  Level Kansas City Center
12:07PM 37.4742 -98.0336 53° Northeast 543 625 35,000  Level Kansas City Center
12:08PM 37.5647 -97.8839 53° Northeast 544 626 35,000  Level Kansas City Center
12:09PM 37.6558 -97.7319 53° Northeast 539 620 35,000  Level Kansas City Center
12:11PM 37.8483 -97.4019 53° Northeast 548 631 35,000  Level Kansas City Center
12:12PM 37.9356 -97.2472 54° Northeast 544 626 35,000  Level Kansas City Center
12:13PM 38.0211 -97.0917 55° Northeast 542 624 35,000  Level Kansas City Center
12:14PM 38.1081 -96.9375 54° Northeast 539 620 35,000  Level Kansas City Center
12:15PM 38.1928 -96.7836 55° Northeast 534 615 35,000  Level Kansas City Center
12:17PM 38.2947 -96.5978 55° Northeast 534 615 35,000  Level Kansas City Center
12:18PM 38.3817 -96.4383 55° Northeast 530 610 35,000  Level Kansas City Center
12:19PM 38.4625 -96.2903 55° Northeast 530 610 35,000  Level Kansas City Center
12:20PM 38.5569 -96.1161 55° Northeast 534 615 35,000  Level Kansas City Center
12:21PM 38.6347 -95.9647 57° Northeast 534 615 35,000  Level Kansas City Center
12:22PM 38.7158 -95.8156 55° Northeast 533 613 35,000  Level Kansas City Center
12:23PM 38.8094 -95.6428 55° Northeast 530 610 35,000  Level Kansas City Center
12:24PM 38.8886 -95.4947 55° Northeast 529 609 35,000  Level Kansas City Center
12:25PM 38.9800 -95.3217 56° Northeast 527 606 35,000  Level Kansas City Center
12:26PM 39.0656 -95.1592 56° Northeast 528 608 35,000  Level Kansas City Center
12:27PM 39.1469 -95.0014 56° Northeast 528 608 35,000  Level Kansas City Center
12:28PM 39.2372 -94.8269 56° Northeast 528 608 35,000  Level Kansas City Center
12:29PM 39.3125 -94.6767 57° Northeast 525 604 35,000  Level Kansas City Center
12:30PM 39.3772 -94.5150 63° Northeast 529 609 35,000  Level Kansas City Center
12:31PM 39.4525 -94.3289 62° Northeast 523 602 35,000  Level Kansas City Center
12:32PM 39.5169 -94.1692 62° Northeast 524 603 35,000  Level Kansas City Center
12:33PM 39.5928 -93.9828 62° Northeast 524 603 35,000  Level Kansas City Center
12:34PM 39.6564 -93.8231 63° Northeast 520 598 35,000  Level Kansas City Center
12:35PM 39.7189 -93.6614 63° Northeast 526 605 35,000  Level Kansas City Center
12:36PM 39.7967 -93.4581 63° Northeast 527 606 35,000  Level Kansas City Center
12:37PM 39.8653 -93.2950 61° Northeast 522 601 35,000  Level Kansas City Center
12:38PM 39.9294 -93.1256 64° Northeast 526 605 35,000  Level Kansas City Center
12:39PM 39.9953 -92.9564 63° Northeast 528 608 35,000  Level Kansas City Center
12:40PM 40.0678 -92.7683 63° Northeast 525 604 35,000  Level Kansas City Center
12:41PM 40.1289 -92.6033 64° Northeast 526 605 35,000  Level Kansas City Center
12:42PM 40.2028 -92.4108 63° Northeast 528 608 35,000 -300 Level Kansas City Center
12:43PM 40.2594 -92.2500 65° Northeast 529 609 34,400 -1,020 Descending Kansas City Center
12:44PM 40.3200 -92.0794 65° Northeast 527 606 33,000 -720 Descending Kansas City Center
12:45PM 40.3792 -91.9125 65° Northeast 517 595 33,000  Level Kansas City Center
12:46PM 40.4500 -91.7106 65° Northeast 513 590 33,000  Level Kansas City Center
12:47PM 40.5081 -91.5375 66° East 519 597 33,000  Level Kansas City Center
12:48PM 40.5322 -91.4683 65° Northeast 521 600 33,000  Level Chicago Center
12:49PM 40.5936 -91.2917 65° Northeast 533 613 33,000  Level Chicago Center
12:50PM 40.6589 -91.0997 66° East 541 623 33,000 -300 Level Chicago Center
12:51PM 40.7203 -90.9189 66° East 542 624 32,400 -1,020 Descending Chicago Center
12:53PM 40.8156 -90.6389 66° East 522 601 30,300 -1,260 Descending Kansas City Center
12:53PM 40.8372 -90.5725 67° East 508 585 29,800 -1,320 Descending Chicago Center
12:54PM 40.8936 -90.4050 66° East 496 571 28,500 -1,380 Descending Chicago Center
12:55PM 40.9569 -90.2128 66° East 499 574 27,000 -1,320 Descending Chicago Center
12:56PM 41.0058 -90.0636 66° East 503 579 25,900 -1,260 Descending Chicago Center
12:57PM 41.0628 -89.8925 66° East 502 578 24,500 -960 Descending Chicago Center
12:58PM 41.1139 -89.7311 67° East 479 551 24,000 -840 Descending Chicago Center
12:59PM 41.1661 -89.5753 66° East 462 532 22,800 -1,500 Descending Chicago Center
01:00PM 41.2392 -89.3967 61° Northeast 459 528 20,900 -1,980 Descending Chicago Center
01:01PM 41.2975 -89.2497 62° Northeast 451 519 18,800 -2,280 Descending Chicago Center
01:02PM 41.3558 -89.1011 62° Northeast 434 499 16,300 -2,340 Descending Chicago Center
01:03PM 41.4094 -88.9664 62° Northeast 418 481 14,000 -2,400 Descending Chicago Center
01:04PM 41.4606 -88.8361 62° Northeast 401 461 11,500 -1,500 Descending Chicago Center
01:05PM 41.5119 -88.7072 62° Northeast 399 459 11,000 -240 Descending Chicago Center
01:06PM 41.5628 -88.5778 62° Northeast 400 460 11,100 -300 Climbing Chicago Center
01:07PM 41.6150 -88.4564 60° Northeast 379 436 10,400 -1,140 Descending Chicago Center
01:08PM 41.6797 -88.3433 53° Northeast 319 367 8,800 -1,200 Descending Chicago Center
01:09PM 41.7328 -88.2528 52° Northeast 310 357 8,000 -420 Descending Chicago Center
01:10PM 41.7850 -88.1628 52° Northeast 308 354 8,000  Level Chicago Center
01:11PM 41.8361 -88.0753 52° Northeast 300 345 8,000 -300 Level Chicago Center
01:12PM 41.8831 -87.9803 56° Northeast 303 349 7,500 -540 Descending Chicago Center
01:13PM 41.8850 -87.8553 89° East 329 379 7,000 -300 Descending Chicago Center
01:14PM 41.8842 -87.7322 90° East 330 380 6,900 -660 Descending Chicago Center
01:15PM 41.8836 -87.6139 90° East 324 373 5,700 -960 Descending Chicago Center
01:17PM 41.8828 -87.4797 90° East 312 359 5,000 -300 Descending Chicago Center
01:18PM 41.8833 -87.3833 90° East 252 290 5,100  Climbing Chicago TRACON
01:18PM 41.8833 -87.3000 90° East 225 259 5,100  Level Chicago TRACON
01:19PM 41.9333 -87.2667 26° Northeast 216 249 5,100  Level Chicago TRACON
01:20PM 41.9667 -87.3167 312° West 142 163 5,100  Level Chicago TRACON
01:21PM 41.9667 -87.3667 270° West 132 152 5,100  Level Chicago TRACON
01:22PM 41.9667 -87.4167 270° West 136 157 5,100  Level Chicago TRACON
01:23PM 41.9667 -87.4667 270° West 131 151 5,100  Level Chicago TRACON
01:24PM 41.9667 -87.5167 270° West 133 153 5,100  Level Chicago TRACON
01:25PM 41.9667 -87.5667 270° West 128 147 5,100 -120 Level Chicago TRACON
01:26PM 41.9667 -87.6000 270° West 130 150 4,900 -540 Descending Chicago TRACON
01:27PM 41.9667 -87.6500 270° West 132 152 4,100 -780 Descending Chicago TRACON
01:28PM 41.9667 -87.7000 270° West 134 154 3,400 -780 Descending Chicago TRACON
01:29PM 41.9667 -87.7500 270° West 147 169 2,600 -780 Descending Chicago TRACON
01:30PM 41.9667 -87.8000 270° West 119 137 1,900 -660 Descending Chicago TRACON
01:31PM 41.9667 -87.8500 270° West 119 137 1,300 -600 Descending Chicago TRACON